Nairn, United Kingdom
Current Conditions -  °F | °C
As of 10:50 PM on Thursday 18 Dec 2014 (Local Time) from EGPE Reporting Station
Light Rain Light Rain  
Wind Chill: 28°   Ceiling: 1200
Heat Index: 37°   Visibility: 5mi
Dew Point: 34°   Wind: 16mph
Humidity: 87%   Direction: 260°W
Pressure: 29.32"   Gusts: 28mph
Location:  57.58°N, 3.88°W
Report Text: EGPE 182250Z AUTO 26014G24KT 8000 -RA BKN012/// 03/01 Q0993 RERA
Loading
Personal Weather Stations






























Interactive Weather Map New forecast layout! Learn more

10-Day Weather Forecast

Advertisements
Track Severe Weather on mobile